Time;durP1;ratioP1;P1;durP2;ratioP2;P2;SDS_P1;SDS_P2;PMS_P1;PMS_P2;Temp;Humidity;BMP_temperature;BMP_pressure;BME280_temperature;BME280_humidity;BME280_pressure;Samples;Min_cycle;Max_cycle;Signal;HPM_P1;HPM_P2
2023/12/07 00:00:38;;;;;;;22.48;13.88;;;2.70;99.90;;;;;;5089163;28;20078;-80
2023/12/07 00:03:06;;;;;;;19.20;13.52;;;2.70;99.90;;;;;;5088355;28;20048;-80
2023/12/07 00:05:33;;;;;;;24.40;13.00;;;2.70;99.90;;;;;;5039589;28;20048;-79
2023/12/07 00:07:58;;;;;;;18.25;13.30;;;2.70;99.90;;;;;;5055128;28;20056;-79
2023/12/07 00:10:24;;;;;;;23.67;14.27;;;2.70;99.90;;;;;;5076051;28;20040;-79
2023/12/07 00:12:50;;;;;;;18.17;13.10;;;2.70;99.90;;;;;;5038461;28;20056;-79
2023/12/07 00:15:15;;;;;;;17.35;12.02;;;2.70;99.90;;;;;;5070409;28;20044;-79
2023/12/07 00:17:41;;;;;;;22.67;13.85;;;2.70;99.90;;;;;;5050736;28;20043;-79
2023/12/07 00:20:07;;;;;;;19.02;13.25;;;2.70;99.90;;;;;;5070952;28;20061;-78
2023/12/07 00:22:33;;;;;;;18.70;13.30;;;2.70;99.90;;;;;;5071400;28;20040;-79
2023/12/07 00:24:59;;;;;;;19.15;13.43;;;2.70;99.90;;;;;;5080597;28;20123;-78
2023/12/07 00:27:25;;;;;;;21.00;13.02;;;2.70;99.90;;;;;;5083472;28;20037;-78
2023/12/07 00:29:50;;;;;;;20.48;13.45;;;2.70;99.90;;;;;;5060344;28;20043;-78
2023/12/07 00:32:17;;;;;;;19.92;13.65;;;2.70;99.90;;;;;;5062980;28;20459;-78
2023/12/07 00:34:43;;;;;;;18.25;12.77;;;2.70;99.90;;;;;;5080725;28;20041;-79
2023/12/07 00:37:09;;;;;;;20.33;12.45;;;2.70;99.90;;;;;;5046471;28;20136;-78
2023/12/07 00:39:36;;;;;;;16.90;12.48;;;2.70;99.90;;;;;;5080574;28;20040;-79
2023/12/07 00:42:04;;;;;;;15.80;11.50;;;2.80;99.90;;;;;;5060389;28;20056;-80
2023/12/07 00:44:31;;;;;;;22.00;12.77;;;2.70;99.90;;;;;;5062126;28;20029;-79
2023/12/07 00:47:00;;;;;;;18.50;12.23;;;2.70;99.90;;;;;;5077997;28;20048;-79
2023/12/07 00:49:25;;;;;;;20.42;12.68;;;2.70;99.90;;;;;;5053612;28;20037;-79
2023/12/07 00:51:51;;;;;;;18.95;12.77;;;2.60;99.90;;;;;;5056271;28;20045;-80
2023/12/07 00:54:16;;;;;;;20.75;13.18;;;2.70;99.90;;;;;;5071874;28;20120;-80
2023/12/07 00:56:42;;;;;;;23.83;12.52;;;2.70;99.90;;;;;;5056978;28;20044;-79
2023/12/07 00:59:08;;;;;;;17.58;12.50;;;2.70;99.90;;;;;;5050142;28;20045;-79
2023/12/07 01:01:38;;;;;;;20.10;12.50;;;3.20;99.90;;;;;;5057998;28;20048;-79
2023/12/07 01:04:05;;;;;;;20.20;11.98;;;4.50;99.90;;;;;;5057940;28;20048;-79
2023/12/07 01:06:31;;;;;;;16.50;12.13;;;2.70;99.90;;;;;;5056084;28;20133;-79
2023/12/07 01:08:57;;;;;;;22.15;12.70;;;4.00;99.90;;;;;;5058187;28;20102;-79
2023/12/07 01:11:22;;;;;;;19.17;12.85;;;2.60;99.90;;;;;;5072228;28;20044;-80
2023/12/07 01:13:49;;;;;;;19.80;13.32;;;2.50;99.90;;;;;;5032579;28;20052;-79
2023/12/07 01:16:14;;;;;;;20.83;13.10;;;3.20;99.90;;;;;;5059124;28;20141;-80
2023/12/07 01:18:40;;;;;;;19.13;13.05;;;2.60;99.90;;;;;;5059584;28;20075;-80
2023/12/07 01:21:06;;;;;;;21.52;13.13;;;2.60;99.90;;;;;;5063238;28;20049;-80
2023/12/07 01:23:37;;;;;;;17.85;12.73;;;2.60;99.90;;;;;;5056736;28;20096;-80
2023/12/07 01:26:03;;;;;;;19.60;13.13;;;2.60;99.90;;;;;;5067532;28;20066;-79
2023/12/07 01:28:29;;;;;;;21.55;12.82;;;2.60;99.90;;;;;;5070341;28;20119;-80
2023/12/07 01:30:54;;;;;;;17.83;12.13;;;3.40;99.90;;;;;;5078024;28;20045;-80
2023/12/07 01:33:21;;;;;;;17.95;11.68;;;3.20;99.90;;;;;;5078855;28;20040;-78
2023/12/07 01:35:47;;;;;;;17.70;11.63;;;2.60;99.90;;;;;;5044404;28;20064;-80
2023/12/07 01:38:12;;;;;;;21.48;12.32;;;2.60;99.90;;;;;;5056804;28;20052;-80
2023/12/07 01:40:38;;;;;;;16.88;11.43;;;2.60;99.90;;;;;;5075713;28;20040;-80
2023/12/07 01:43:04;;;;;;;17.83;11.75;;;2.60;99.90;;;;;;5090942;28;20036;-79
2023/12/07 01:45:29;;;;;;;16.90;11.25;;;2.60;99.90;;;;;;5073839;28;20037;-79
2023/12/07 01:47:58;;;;;;;18.65;11.45;;;2.60;99.90;;;;;;5073410;28;20045;-80
2023/12/07 01:50:29;;;;;;;16.15;10.85;;;2.60;99.90;;;;;;5086348;28;20055;-80
2023/12/07 01:53:05;;;;;;;13.98;10.48;;;2.50;99.90;;;;;;5070126;28;20044;-81
2023/12/07 01:55:32;;;;;;;18.80;11.43;;;2.50;99.90;;;;;;5071088;28;20041;-81
2023/12/07 01:57:58;;;;;;;16.90;10.48;;;2.50;99.90;;;;;;5072824;28;20672;-79
2023/12/07 02:00:27;;;;;;;18.48;11.32;;;2.50;99.90;;;;;;5079799;28;20055;-80
2023/12/07 02:02:53;;;;;;;17.77;11.45;;;2.50;99.90;;;;;;5051399;28;20058;-80
2023/12/07 02:05:21;;;;;;;19.33;10.60;;;2.60;99.90;;;;;;5058664;28;20067;-80
2023/12/07 02:07:47;;;;;;;19.30;11.73;;;2.50;99.90;;;;;;5047569;28;20306;-80
2023/12/07 02:10:13;;;;;;;15.57;11.27;;;2.50;99.90;;;;;;5052556;28;20036;-80
2023/12/07 02:12:43;;;;;;;16.95;11.05;;;2.50;99.90;;;;;;5103427;28;20045;-80
2023/12/07 02:15:13;;;;;;;18.92;11.02;;;2.50;99.90;;;;;;5060421;28;20534;-82
2023/12/07 02:18:06;;;;;;;14.95;10.55;;;2.50;99.90;;;;;;5054580;28;20049;-80
2023/12/07 02:20:52;;;;;;;16.17;11.80;;;2.40;99.90;;;;;;5072024;28;20064;-79
2023/12/07 02:23:19;;;;;;;22.08;12.43;;;2.50;99.90;;;;;;5086731;28;20053;-79
2023/12/07 02:25:52;;;;;;;19.20;11.13;;;2.40;99.90;;;;;;5066354;28;20051;-81
2023/12/07 02:28:18;;;;;;;17.42;10.98;;;2.40;99.90;;;;;;5084060;28;20521;-80
2023/12/07 02:30:44;;;;;;;17.98;11.00;;;2.40;99.90;;;;;;5069452;28;20048;-80
2023/12/07 02:33:11;;;;;;;18.17;10.48;;;2.40;99.90;;;;;;5062795;28;20128;-81
2023/12/07 02:35:38;;;;;;;19.27;12.20;;;2.40;99.90;;;;;;5052883;28;20082;-78
2023/12/07 02:38:06;;;;;;;16.50;10.98;;;2.40;99.90;;;;;;5047211;28;20380;-79
2023/12/07 02:40:32;;;;;;;17.98;10.75;;;2.40;99.90;;;;;;5044367;28;20052;-78
2023/12/07 02:43:00;;;;;;;19.80;11.23;;;2.40;99.90;;;;;;5055846;28;20079;-80
2023/12/07 02:45:29;;;;;;;20.38;11.60;;;2.50;99.90;;;;;;5086907;28;20038;-82
2023/12/07 02:47:57;;;;;;;18.50;11.43;;;2.40;99.90;;;;;;5041571;28;20048;-80
2023/12/07 02:50:24;;;;;;;15.80;11.27;;;2.40;99.90;;;;;;5043177;28;20487;-79
2023/12/07 02:52:50;;;;;;;17.67;10.98;;;2.40;99.90;;;;;;5076105;28;20043;-80
2023/12/07 02:55:16;;;;;;;15.43;11.02;;;2.40;99.90;;;;;;5060658;28;20055;-80
2023/12/07 02:57:42;;;;;;;18.08;11.80;;;2.40;99.90;;;;;;5069327;28;20064;-80
2023/12/07 03:00:12;;;;;;;17.88;10.88;;;2.50;99.90;;;;;;5067174;28;20048;-80
2023/12/07 03:02:40;;;;;;;16.60;11.07;;;2.50;99.90;;;;;;5080700;28;20401;-79
2023/12/07 03:05:06;;;;;;;16.52;10.20;;;2.50;99.90;;;;;;5083289;28;20073;-81
2023/12/07 03:07:36;;;;;;;15.50;10.88;;;2.50;99.90;;;;;;5067277;28;20033;-78
2023/12/07 03:10:02;;;;;;;19.20;10.90;;;2.50;99.90;;;;;;5042784;28;20504;-80
2023/12/07 03:12:28;;;;;;;20.42;11.05;;;2.50;99.90;;;;;;5085041;28;20086;-79
2023/12/07 03:14:54;;;;;;;17.27;10.43;;;2.50;99.90;;;;;;5067014;28;20044;-79
2023/12/07 03:17:20;;;;;;;16.10;10.02;;;2.50;99.90;;;;;;5068792;28;20086;-78
2023/12/07 03:19:45;;;;;;;14.98;10.05;;;2.50;99.90;;;;;;5089136;28;20036;-78
2023/12/07 03:22:13;;;;;;;15.38;10.35;;;2.60;99.90;;;;;;5079815;28;20033;-78
2023/12/07 03:24:40;;;;;;;16.02;10.50;;;2.50;99.90;;;;;;5061401;28;20083;-78
2023/12/07 03:27:06;;;;;;;15.20;10.40;;;2.60;99.90;;;;;;5047684;28;20435;-79
2023/12/07 03:29:35;;;;;;;17.17;10.75;;;2.50;99.90;;;;;;5064997;28;20501;-79
2023/12/07 03:32:01;;;;;;;14.60;9.85;;;2.50;99.90;;;;;;5061934;28;20084;-79
2023/12/07 03:34:27;;;;;;;16.90;9.95;;;2.50;99.90;;;;;;5075444;28;20062;-79
2023/12/07 03:36:52;;;;;;;19.17;10.55;;;2.50;99.90;;;;;;5040245;28;20056;-79
2023/12/07 03:39:18;;;;;;;16.73;10.13;;;2.50;99.90;;;;;;5061244;28;20048;-79
2023/12/07 03:41:44;;;;;;;14.88;9.98;;;1.40;99.90;;;;;;5046621;28;20090;-79
2023/12/07 03:44:10;;;;;;;15.70;10.60;;;2.70;99.90;;;;;;5058456;28;20033;-78
2023/12/07 03:46:36;;;;;;;21.58;11.48;;;2.50;99.90;;;;;;5081458;28;20119;-79
2023/12/07 03:49:02;;;;;;;17.42;9.95;;;2.50;99.90;;;;;;5079208;28;20040;-78
2023/12/07 03:51:28;;;;;;;13.63;9.63;;;2.50;99.90;;;;;;5048820;28;20036;-79
2023/12/07 03:53:55;;;;;;;17.25;10.25;;;2.60;99.90;;;;;;5068517;28;20067;-79
2023/12/07 03:56:33;;;;;;;14.43;10.23;;;2.50;99.90;;;;;;5063766;28;20044;-80
2023/12/07 03:59:00;;;;;;;15.75;9.88;;;2.50;99.90;;;;;;5047671;28;20055;-80
2023/12/07 04:01:29;;;;;;;19.90;10.75;;;2.50;99.90;;;;;;5051384;28;20100;-80
2023/12/07 04:04:00;;;;;;;14.93;10.52;;;3.40;99.90;;;;;;5059882;28;20041;-82
2023/12/07 04:06:28;;;;;;;16.92;9.27;;;2.50;99.90;;;;;;5064592;28;20071;-80
2023/12/07 04:09:00;;;;;;;14.45;9.05;;;2.50;99.90;;;;;;5068114;28;20100;-79
2023/12/07 04:11:25;;;;;;;14.10;8.90;;;2.50;99.90;;;;;;5053632;28;20075;-80
2023/12/07 04:13:51;;;;;;;11.13;8.00;;;2.50;99.90;;;;;;5036010;28;20032;-79
2023/12/07 04:16:17;;;;;;;16.75;10.02;;;2.50;99.90;;;;;;5076741;28;20040;-79
2023/12/07 04:18:43;;;;;;;12.70;8.63;;;2.50;99.90;;;;;;5075471;28;20041;-80
2023/12/07 04:21:08;;;;;;;17.05;9.13;;;3.00;99.90;;;;;;5079823;28;20447;-79
2023/12/07 04:23:34;;;;;;;15.35;8.65;;;2.50;99.90;;;;;;5077375;28;20064;-79
2023/12/07 04:26:00;;;;;;;12.10;8.48;;;2.40;99.90;;;;;;5072218;28;20210;-79
2023/12/07 04:28:25;;;;;;;15.70;8.52;;;2.50;99.90;;;;;;5031579;28;20033;-80
2023/12/07 04:30:52;;;;;;;15.15;8.88;;;2.50;99.90;;;;;;5067710;28;20083;-79
2023/12/07 04:33:18;;;;;;;13.02;8.05;;;1.60;99.90;;;;;;5058214;28;20116;-80
2023/12/07 04:35:47;;;;;;;17.42;8.27;;;2.90;99.90;;;;;;5062588;28;20179;-79
2023/12/07 04:38:13;;;;;;;12.23;8.52;;;2.40;99.90;;;;;;5029490;28;20045;-79
2023/12/07 04:40:38;;;;;;;13.13;8.20;;;2.40;99.90;;;;;;5091473;28;20048;-79
2023/12/07 04:43:04;;;;;;;12.73;8.73;;;2.40;99.90;;;;;;5053025;28;20388;-79
2023/12/07 04:45:30;;;;;;;15.57;9.18;;;2.50;99.90;;;;;;5075071;28;20045;-79
2023/12/07 04:47:57;;;;;;;13.20;8.55;;;2.40;99.90;;;;;;5097509;28;20044;-79
2023/12/07 04:50:23;;;;;;;12.40;7.95;;;2.50;99.90;;;;;;5067079;28;20051;-78
2023/12/07 04:52:48;;;;;;;11.20;8.30;;;2.40;99.90;;;;;;5064239;28;20032;-78
2023/12/07 04:55:15;;;;;;;12.20;9.15;;;2.40;99.90;;;;;;5054264;28;20036;-78
2023/12/07 04:57:41;;;;;;;12.10;8.63;;;2.40;99.90;;;;;;5064705;28;20529;-78
2023/12/07 05:00:09;;;;;;;13.05;9.15;;;2.40;99.90;;;;;;5065338;28;20032;-78
2023/12/07 05:02:35;;;;;;;12.43;8.52;;;2.40;99.90;;;;;;5058026;28;20044;-78
2023/12/07 05:05:01;;;;;;;11.45;8.07;;;2.30;99.90;;;;;;5033755;28;20107;-78
2023/12/07 05:07:27;;;;;;;13.40;8.57;;;2.40;99.90;;;;;;5083358;28;20045;-77
2023/12/07 05:09:53;;;;;;;12.90;9.02;;;2.40;99.90;;;;;;5046216;28;20104;-79
2023/12/07 05:12:18;;;;;;;15.93;9.65;;;2.40;99.90;;;;;;5037144;28;20051;-80
2023/12/07 05:14:44;;;;;;;15.15;9.10;;;2.40;99.90;;;;;;5064553;28;20116;-79
2023/12/07 05:17:09;;;;;;;14.07;8.32;;;2.40;99.90;;;;;;5054105;28;20048;-79
2023/12/07 05:19:35;;;;;;;12.15;9.25;;;2.40;99.90;;;;;;5066188;28;20501;-79
2023/12/07 05:22:01;;;;;;;15.15;8.40;;;2.40;99.90;;;;;;5071070;28;20061;-79
2023/12/07 05:24:27;;;;;;;16.58;8.90;;;2.40;99.90;;;;;;5048723;28;20048;-79
2023/12/07 05:26:53;;;;;;;15.27;8.95;;;2.40;99.90;;;;;;5025151;28;20506;-79
2023/12/07 05:29:19;;;;;;;15.68;9.32;;;2.40;99.90;;;;;;5055019;28;20048;-79
2023/12/07 05:31:44;;;;;;;15.02;8.38;;;2.40;99.90;;;;;;5039675;28;20040;-80
2023/12/07 05:34:11;;;;;;;15.15;9.02;;;2.40;99.90;;;;;;5025705;28;20040;-78
2023/12/07 05:36:42;;;;;;;14.77;8.85;;;2.30;99.90;;;;;;5074627;28;20041;-79
2023/12/07 05:39:07;;;;;;;13.85;8.90;;;2.40;99.90;;;;;;5075584;28;20037;-79
2023/12/07 05:41:33;;;;;;;15.52;9.80;;;2.40;99.90;;;;;;5042129;28;20056;-79
2023/12/07 05:43:59;;;;;;;13.77;9.10;;;2.30;99.90;;;;;;5059969;28;20029;-79
2023/12/07 05:46:24;;;;;;;12.65;8.85;;;2.90;99.90;;;;;;5073523;28;20041;-79
2023/12/07 05:48:50;;;;;;;13.82;9.95;;;2.30;99.90;;;;;;5035591;28;20055;-79
2023/12/07 05:51:17;;;;;;;19.55;10.07;;;2.30;99.90;;;;;;5076428;28;20039;-79
2023/12/07 05:53:44;;;;;;;17.70;10.95;;;2.30;99.90;;;;;;5078663;28;20071;-80
2023/12/07 05:56:10;;;;;;;13.93;10.15;;;2.30;99.90;;;;;;5060087;28;20044;-80
2023/12/07 05:58:36;;;;;;;14.02;10.07;;;2.40;99.90;;;;;;5056254;28;20084;-80
2023/12/07 06:01:02;;;;;;;15.30;10.27;;;2.20;99.90;;;;;;5026640;28;20053;-79
2023/12/07 06:03:29;;;;;;;17.75;10.95;;;2.20;99.90;;;;;;5053280;28;20040;-79
2023/12/07 06:05:55;;;;;;;16.45;11.43;;;3.60;99.90;;;;;;5072373;28;20517;-78
2023/12/07 06:08:21;;;;;;;16.35;9.63;;;2.30;99.90;;;;;;5074940;28;20047;-79
2023/12/07 06:10:48;;;;;;;16.00;10.80;;;2.20;99.90;;;;;;5073936;28;20433;-79
2023/12/07 06:13:14;;;;;;;18.80;10.90;;;2.20;99.90;;;;;;5074369;28;20040;-79
2023/12/07 06:15:43;;;;;;;15.77;11.25;;;2.30;99.90;;;;;;5037953;28;20051;-79
2023/12/07 06:18:08;;;;;;;18.63;11.25;;;2.30;99.90;;;;;;5067406;28;20045;-78
2023/12/07 06:20:35;;;;;;;17.70;11.15;;;2.20;99.90;;;;;;5055867;28;20048;-79
2023/12/07 06:23:01;;;;;;;18.95;11.05;;;2.30;99.90;;;;;;5073370;28;20048;-78
2023/12/07 06:25:27;;;;;;;15.60;11.93;;;2.30;99.90;;;;;;5073003;28;20510;-78
2023/12/07 06:27:53;;;;;;;17.98;10.77;;;2.30;99.90;;;;;;5086855;28;20044;-81
2023/12/07 06:30:18;;;;;;;21.75;11.77;;;2.20;99.90;;;;;;5059843;28;20040;-79
2023/12/07 06:32:44;;;;;;;17.17;11.60;;;2.60;99.90;;;;;;5073537;28;20036;-79
2023/12/07 06:35:13;;;;;;;18.25;11.38;;;2.90;99.90;;;;;;5070261;28;20404;-80
2023/12/07 06:37:41;;;;;;;15.70;9.90;;;2.90;99.90;;;;;;5083488;28;20047;-80
2023/12/07 06:40:09;;;;;;;19.40;11.45;;;2.30;99.90;;;;;;5047416;28;20048;-80
2023/12/07 06:42:35;;;;;;;21.38;11.23;;;2.30;99.90;;;;;;5038053;28;20134;-79
2023/12/07 06:45:02;;;;;;;18.95;11.90;;;3.20;99.90;;;;;;5032606;28;20054;-78
2023/12/07 06:47:27;;;;;;;17.45;11.35;;;2.30;99.90;;;;;;5053792;28;20047;-78
2023/12/07 06:49:53;;;;;;;17.63;11.13;;;2.30;99.90;;;;;;5075369;28;20072;-78
2023/12/07 06:52:19;;;;;;;17.48;10.63;;;2.30;99.90;;;;;;5077159;28;20055;-80
2023/12/07 06:54:45;;;;;;;16.65;10.73;;;2.30;99.90;;;;;;5076544;28;20068;-80
2023/12/07 06:57:11;;;;;;;16.60;11.40;;;2.30;99.90;;;;;;5078693;28;20100;-79
2023/12/07 06:59:36;;;;;;;17.30;11.10;;;2.30;99.90;;;;;;5060175;28;20164;-79
2023/12/07 07:02:02;;;;;;;17.70;11.18;;;2.30;99.90;;;;;;5041257;28;20495;-79
2023/12/07 07:04:29;;;;;;;17.60;10.82;;;2.30;99.90;;;;;;5066918;28;20079;-79
2023/12/07 07:06:55;;;;;;;15.55;10.77;;;2.30;99.90;;;;;;5072456;28;20040;-79
2023/12/07 07:09:21;;;;;;;18.10;10.80;;;2.30;99.90;;;;;;5079674;28;20036;-79
2023/12/07 07:11:50;;;;;;;21.50;11.50;;;2.30;99.90;;;;;;5079559;28;20435;-80
2023/12/07 07:14:18;;;;;;;16.55;11.45;;;2.30;99.90;;;;;;5061440;28;20043;-79
2023/12/07 07:16:44;;;;;;;17.35;10.77;;;2.30;99.90;;;;;;5079144;28;20044;-79
2023/12/07 07:19:11;;;;;;;16.70;10.88;;;2.40;99.90;;;;;;5063023;28;20039;-79
2023/12/07 07:21:36;;;;;;;17.63;9.88;;;2.30;99.90;;;;;;5045368;28;20036;-80
2023/12/07 07:24:02;;;;;;;20.70;11.35;;;2.70;99.90;;;;;;5051202;28;20040;-79
2023/12/07 07:26:28;;;;;;;15.57;10.80;;;2.30;99.90;;;;;;5059174;28;20056;-81
2023/12/07 07:28:53;;;;;;;16.17;11.48;;;1.30;99.90;;;;;;5044170;28;20040;-79
2023/12/07 07:31:19;;;;;;;19.85;10.40;;;2.40;99.90;;;;;;5045869;28;20040;-79
2023/12/07 07:33:49;;;;;;;19.70;11.02;;;2.40;99.90;;;;;;5079002;28;20048;-80
2023/12/07 07:36:15;;;;;;;17.60;11.48;;;2.40;99.90;;;;;;5061687;28;20044;-81
2023/12/07 07:38:44;;;;;;;19.35;10.85;;;2.40;99.90;;;;;;5062441;28;20037;-80
2023/12/07 07:41:11;;;;;;;18.33;11.82;;;2.50;99.90;;;;;;5084902;28;20076;-79
2023/12/07 07:43:37;;;;;;;18.08;10.45;;;2.50;99.90;;;;;;5063692;28;20044;-80
2023/12/07 07:46:04;;;;;;;18.23;11.13;;;2.50;99.90;;;;;;5080347;28;20116;-80
2023/12/07 07:48:30;;;;;;;18.73;10.43;;;2.50;99.90;;;;;;5083447;28;20056;-78
2023/12/07 07:50:57;;;;;;;20.23;11.15;;;2.50;99.90;;;;;;5076244;28;20033;-79
2023/12/07 07:53:22;;;;;;;17.80;11.43;;;2.50;99.90;;;;;;5077018;28;20099;-79
2023/12/07 07:55:51;;;;;;;24.85;12.35;;;2.60;99.90;;;;;;5078491;28;20045;-79
2023/12/07 07:58:20;;;;;;;17.80;11.90;;;2.60;99.90;;;;;;5060995;28;20051;-80
2023/12/07 08:00:46;;;;;;;20.45;11.85;;;2.60;99.90;;;;;;5071469;28;20049;-79
2023/12/07 08:03:12;;;;;;;21.35;12.18;;;2.60;99.90;;;;;;5078865;28;20112;-79
2023/12/07 08:05:38;;;;;;;21.65;11.98;;;2.60;99.90;;;;;;5078980;28;20047;-79
2023/12/07 08:08:04;;;;;;;21.38;12.45;;;2.60;99.90;;;;;;5072562;28;20037;-79
2023/12/07 08:10:31;;;;;;;19.55;12.40;;;2.60;99.90;;;;;;5079139;28;20113;-80
2023/12/07 08:12:56;;;;;;;22.88;13.75;;;2.60;99.90;;;;;;5082676;28;20052;-79
2023/12/07 08:15:22;;;;;;;21.38;12.02;;;2.60;99.90;;;;;;5086198;28;20062;-80
2023/12/07 08:17:48;;;;;;;19.05;12.25;;;2.80;99.90;;;;;;5044173;28;20098;-79
2023/12/07 08:20:14;;;;;;;18.70;12.15;;;2.70;99.90;;;;;;5059938;28;20391;-79
2023/12/07 08:22:43;;;;;;;20.85;12.60;;;2.70;99.90;;;;;;5043201;28;20064;-80
2023/12/07 08:25:11;;;;;;;20.13;12.45;;;2.70;99.90;;;;;;5068528;28;20040;-79
2023/12/07 08:27:38;;;;;;;22.63;12.88;;;2.70;99.90;;;;;;5049261;28;20075;-79
2023/12/07 08:30:09;;;;;;;20.88;12.23;;;3.80;99.90;;;;;;5041551;28;20442;-79
2023/12/07 08:32:35;;;;;;;19.25;12.07;;;2.80;99.90;;;;;;5046443;28;20045;-79
2023/12/07 08:35:00;;;;;;;22.98;13.32;;;2.90;99.90;;;;;;5061988;28;20079;-79
2023/12/07 08:37:26;;;;;;;21.58;12.00;;;3.60;99.90;;;;;;5043983;28;20044;-79
2023/12/07 08:39:52;;;;;;;23.25;13.20;;;2.90;99.90;;;;;;5062690;28;20040;-79
2023/12/07 08:42:17;;;;;;;20.50;12.85;;;2.90;99.90;;;;;;5061464;28;20043;-79
2023/12/07 08:44:44;;;;;;;22.50;14.55;;;2.90;99.90;;;;;;5060182;28;20036;-78
2023/12/07 08:47:13;;;;;;;20.33;12.65;;;2.80;99.90;;;;;;5061433;28;20114;-80
2023/12/07 08:49:39;;;;;;;20.88;13.68;;;2.80;99.90;;;;;;5079284;28;20398;-79
2023/12/07 08:52:04;;;;;;;22.80;14.10;;;2.90;99.90;;;;;;5078720;28;20040;-80
2023/12/07 08:54:30;;;;;;;21.45;12.80;;;3.90;99.90;;;;;;5076209;28;20090;-79
2023/12/07 08:56:55;;;;;;;23.85;13.07;;;3.00;99.90;;;;;;5061016;28;20052;-78
2023/12/07 08:59:21;;;;;;;23.25;14.18;;;3.00;99.90;;;;;;5062770;28;20402;-78
2023/12/07 09:01:47;;;;;;;22.02;14.20;;;3.00;99.90;;;;;;5080988;28;20414;-79
2023/12/07 09:04:13;;;;;;;21.92;13.50;;;3.00;99.90;;;;;;5097747;28;20459;-79
2023/12/07 09:06:38;;;;;;;23.52;14.75;;;3.00;99.90;;;;;;5082367;28;20403;-79
2023/12/07 09:09:04;;;;;;;26.23;14.45;;;3.10;99.90;;;;;;5084140;28;20088;-79
2023/12/07 09:11:30;;;;;;;22.10;13.73;;;4.20;99.90;;;;;;5049444;28;20143;-77
2023/12/07 09:13:57;;;;;;;21.38;14.57;;;3.30;99.90;;;;;;5085446;28;20215;-79
2023/12/07 09:16:22;;;;;;;25.80;16.05;;;3.40;99.90;;;;;;5063290;28;20037;-78
2023/12/07 09:18:48;;;;;;;24.13;15.23;;;3.40;99.90;;;;;;5062345;28;20100;-78
2023/12/07 09:21:13;;;;;;;21.63;15.25;;;3.60;99.90;;;;;;5061778;28;20044;-78
2023/12/07 09:23:39;;;;;;;24.27;15.07;;;3.70;99.90;;;;;;5073856;28;20426;-78
2023/12/07 09:26:08;;;;;;;25.45;16.45;;;4.10;99.90;;;;;;5094325;28;20559;-79
2023/12/07 09:28:34;;;;;;;25.30;15.75;;;4.30;99.90;;;;;;5079523;28;20037;-79
2023/12/07 09:31:00;;;;;;;21.42;15.93;;;4.20;99.90;;;;;;5078763;28;20040;-79
2023/12/07 09:33:25;;;;;;;23.42;16.02;;;4.30;99.90;;;;;;5061945;28;20047;-78
2023/12/07 09:35:51;;;;;;;21.80;16.23;;;4.40;99.90;;;;;;5061935;28;20052;-79
2023/12/07 09:38:20;;;;;;;20.65;15.15;;;4.60;99.90;;;;;;5061329;28;20076;-79
2023/12/07 09:40:47;;;;;;;21.48;15.52;;;4.70;99.90;;;;;;5063615;28;20099;-79
2023/12/07 09:43:13;;;;;;;23.77;16.25;;;4.80;99.90;;;;;;5052067;28;20076;-79
2023/12/07 09:45:43;;;;;;;26.30;16.35;;;5.70;99.90;;;;;;5059047;28;20395;-79
2023/12/07 09:48:09;;;;;;;23.15;16.98;;;4.70;99.90;;;;;;5026313;28;20106;-80
2023/12/07 09:50:40;;;;;;;25.10;16.85;;;4.60;99.90;;;;;;5077084;28;20063;-79
2023/12/07 09:53:09;;;;;;;24.27;18.48;;;4.60;99.90;;;;;;5043803;28;20049;-79
2023/12/07 09:55:35;;;;;;;20.92;18.02;;;4.50;99.90;;;;;;5080498;28;20139;-79
2023/12/07 09:58:04;;;;;;;30.00;19.77;;;4.40;99.90;;;;;;5072576;28;20052;-79
2023/12/07 10:00:30;;;;;;;27.58;19.98;;;4.20;99.90;;;;;;5072773;28;20045;-79
2023/12/07 10:02:55;;;;;;;25.38;19.63;;;4.10;99.90;;;;;;5039803;28;20051;-80
2023/12/07 10:05:21;;;;;;;27.83;20.45;;;3.90;99.90;;;;;;5075406;28;20045;-80
2023/12/07 10:07:50;;;;;;;25.10;19.27;;;3.70;99.90;;;;;;5062904;28;20047;-80
2023/12/07 10:10:16;;;;;;;;;;;3.60;99.90;;;;;;5075655;28;20044;-80
2023/12/07 10:12:53;;;;;;;28.15;17.90;;;3.50;99.90;;;;;;5044758;28;19920;-80
2023/12/07 10:15:20;;;;;;;26.02;19.17;;;4.50;99.90;;;;;;5048525;28;20501;-79
2023/12/07 10:17:55;;;;;;;27.27;18.83;;;3.30;99.90;;;;;;5064511;28;20048;-79
2023/12/07 10:20:25;;;;;;;31.80;19.33;;;3.20;99.90;;;;;;5049136;28;20287;-81
2023/12/07 10:23:05;;;;;;;31.45;19.45;;;3.70;99.90;;;;;;5081989;28;20095;-79
2023/12/07 10:25:32;;;;;;;28.40;18.08;;;3.10;99.90;;;;;;5080618;28;20480;-79
2023/12/07 10:28:01;;;;;;;28.60;18.48;;;3.10;99.90;;;;;;5083747;28;20044;-79
2023/12/07 10:30:27;;;;;;;32.45;19.58;;;3.00;99.90;;;;;;5065667;28;20052;-79
2023/12/07 10:32:53;;;;;;;27.17;19.10;;;2.70;99.90;;;;;;5084575;28;20109;-81
2023/12/07 10:35:20;;;;;;;29.58;18.67;;;2.90;99.90;;;;;;5086984;28;20506;-79
2023/12/07 10:37:46;;;;;;;30.50;19.45;;;2.90;99.90;;;;;;5083059;28;20040;-79
2023/12/07 10:40:12;;;;;;;30.70;19.25;;;2.80;99.90;;;;;;5063565;28;20040;-79
2023/12/07 10:42:41;;;;;;;27.63;19.05;;;2.90;99.90;;;;;;5083162;28;20047;-79
2023/12/07 10:45:07;;;;;;;26.80;17.67;;;2.90;99.90;;;;;;5080050;28;20037;-78
2023/12/07 10:47:38;;;;;;;32.80;18.42;;;2.90;99.90;;;;;;5068145;28;20580;-79
2023/12/07 10:50:11;;;;;;;25.35;16.65;;;2.90;99.90;;;;;;5066225;28;20123;-79
2023/12/07 10:52:44;;;;;;;28.05;17.52;;;2.90;99.90;;;;;;5048306;28;20102;-79
2023/12/07 10:55:32;;;;;;;32.67;17.42;;;2.90;99.90;;;;;;5045608;28;20037;-79
2023/12/07 10:57:59;;;;;;;29.08;18.30;;;2.40;99.90;;;;;;5066246;28;20060;-78
2023/12/07 11:00:28;;;;;;;26.52;17.02;;;3.10;99.90;;;;;;5047411;28;20072;-80
2023/12/07 11:02:55;;;;;;;24.35;17.00;;;3.00;99.90;;;;;;5068676;28;20044;-79
2023/12/07 11:05:21;;;;;;;31.23;19.75;;;3.00;99.90;;;;;;5036290;28;20045;-79
2023/12/07 11:08:02;;;;;;;27.52;16.67;;;3.00;99.90;;;;;;5066660;28;20048;-79
2023/12/07 11:10:45;;;;;;;27.13;16.40;;;3.00;99.90;;;;;;5079872;28;20129;-80
2023/12/07 11:13:11;;;;;;;26.60;16.52;;;3.00;99.90;;;;;;5086032;28;20064;-80
2023/12/07 11:15:37;;;;;;;28.33;16.38;;;3.00;99.90;;;;;;5055227;28;20048;-80
2023/12/07 11:18:03;;;;;;;23.73;15.32;;;3.00;99.90;;;;;;5096779;28;20116;-79
2023/12/07 11:20:41;;;;;;;26.05;15.77;;;3.40;99.90;;;;;;5054141;28;20098;-78
2023/12/07 11:23:20;;;;;;;24.35;14.43;;;3.10;99.90;;;;;;5082057;28;20071;-80
2023/12/07 11:25:50;;;;;;;25.90;13.13;;;3.10;99.90;;;;;;5047681;28;20101;-79
2023/12/07 11:28:16;;;;;;;20.95;14.73;;;3.10;99.90;;;;;;5081635;28;20049;-79
2023/12/07 11:30:44;;;;;;;22.00;15.00;;;3.10;99.90;;;;;;5079350;28;20108;-78
2023/12/07 11:33:11;;;;;;;22.70;13.00;;;4.10;99.90;;;;;;5060124;28;20111;-79
2023/12/07 11:36:02;;;;;;;26.20;14.73;;;3.20;99.90;;;;;;5078776;28;20094;-78
2023/12/07 11:38:28;;;;;;;22.88;14.95;;;3.20;99.90;;;;;;5072766;28;20541;-78
2023/12/07 11:40:58;;;;;;;24.23;14.35;;;3.20;99.90;;;;;;5073580;28;20041;-79
2023/12/07 11:43:45;;;;;;;26.20;15.73;;;3.90;99.90;;;;;;5025722;28;20041;-79
2023/12/07 11:46:14;;;;;;;27.58;16.92;;;3.20;99.90;;;;;;5052110;28;20076;-79
2023/12/07 11:48:45;;;;;;;23.75;15.63;;;4.60;99.90;;;;;;5067712;28;20055;-80
2023/12/07 11:51:12;;;;;;;23.60;14.27;;;3.20;99.90;;;;;;5048231;28;20041;-80
2023/12/07 11:53:39;;;;;;;;;;;3.20;99.90;;;;;;5061936;28;20052;-79
2023/12/07 11:56:07;;;;;;;25.08;14.73;;;4.20;99.90;;;;;;5083859;28;20058;-79
2023/12/07 11:58:35;;;;;;;26.35;15.25;;;3.20;99.90;;;;;;5055026;28;20487;-79
2023/12/07 12:01:04;;;;;;;25.75;14.75;;;3.20;99.90;;;;;;5062088;28;20085;-79
2023/12/07 12:03:32;;;;;;;34.88;19.23;;;3.70;99.90;;;;;;5066820;28;20055;-79
2023/12/07 12:05:58;;;;;;;25.13;15.48;;;3.30;99.90;;;;;;5079451;28;20410;-80
2023/12/07 12:08:24;;;;;;;23.95;15.05;;;3.20;99.90;;;;;;5057355;28;20069;-79
2023/12/07 12:10:52;;;;;;;20.83;15.30;;;3.30;99.90;;;;;;5059363;28;20390;-79
2023/12/07 12:13:18;;;;;;;25.80;14.75;;;3.30;99.90;;;;;;5061035;28;20048;-80
2023/12/07 12:15:46;;;;;;;25.48;15.40;;;3.30;99.90;;;;;;5078463;28;20060;-78
2023/12/07 12:18:13;;;;;;;26.63;15.68;;;3.30;99.90;;;;;;5078444;28;20036;-79
2023/12/07 12:20:39;;;;;;;26.70;16.58;;;3.40;99.90;;;;;;5075341;28;20048;-78
2023/12/07 12:23:06;;;;;;;27.40;16.70;;;3.40;99.90;;;;;;5040561;28;20383;-78
2023/12/07 12:25:33;;;;;;;26.35;17.15;;;3.40;99.90;;;;;;5060363;28;20147;-79
2023/12/07 12:28:06;;;;;;;28.55;17.92;;;3.40;99.90;;;;;;5059133;28;20343;-78
2023/12/07 12:30:34;;;;;;;26.17;16.75;;;4.40;99.90;;;;;;5076881;28;20055;-78
2023/12/07 12:33:00;;;;;;;26.90;16.42;;;3.40;99.90;;;;;;5044185;28;20049;-78
2023/12/07 12:35:26;;;;;;;30.88;16.23;;;3.30;99.90;;;;;;5057590;28;20489;-78
2023/12/07 12:37:52;;;;;;;25.30;16.58;;;3.40;99.90;;;;;;5078358;28;20074;-79